createdAt,value
2018-07-27T00:00:14.136Z,46.75
2018-07-27T00:01:14.138Z,47.03
2018-07-27T00:02:14.139Z,47.03
2018-07-27T00:03:14.137Z,47.23
2018-07-27T00:04:14.142Z,46.75
2018-07-27T00:05:14.142Z,47.52
2018-07-27T00:06:14.140Z,47.33
2018-07-27T00:07:14.142Z,47.11
2018-07-27T00:08:14.159Z,47.20
2018-07-27T00:09:14.148Z,47.62
2018-07-27T00:10:14.167Z,47.79
2018-07-27T00:11:14.142Z,47.81
2018-07-27T00:12:14.151Z,47.60
2018-07-27T00:13:14.147Z,47.91
2018-07-27T00:14:14.148Z,48.18
2018-07-27T00:15:14.149Z,47.98
2018-07-27T00:16:14.144Z,48.18
2018-07-27T00:17:14.152Z,48.08
2018-07-27T00:18:14.155Z,48.47
2018-07-27T00:19:14.152Z,48.18
2018-07-27T00:20:14.153Z,48.37
2018-07-27T00:21:14.155Z,48.27
2018-07-27T00:22:14.152Z,48.66
2018-07-27T00:23:14.151Z,48.57
2018-07-27T00:24:14.154Z,48.66
2018-07-27T00:25:14.152Z,48.85
2018-07-27T00:26:14.159Z,48.85
2018-07-27T00:27:14.159Z,48.76
2018-07-27T00:28:14.160Z,49.24
2018-07-27T00:29:14.164Z,48.64
2018-07-27T00:30:14.164Z,49.24
2018-07-27T00:31:14.160Z,49.22
2018-07-27T00:32:14.159Z,49.12
2018-07-27T00:33:14.159Z,48.95
2018-07-27T00:34:14.158Z,48.76
2018-07-27T00:35:14.165Z,49.02
2018-07-27T00:36:14.183Z,49.32
2018-07-27T00:37:14.166Z,49.02
2018-07-27T00:38:14.166Z,49.12
2018-07-27T00:39:14.169Z,49.12
2018-07-27T00:40:14.165Z,49.22
2018-07-27T00:41:14.168Z,49.32
2018-07-27T00:42:14.197Z,50.29
2018-07-27T00:43:14.173Z,49.90
2018-07-27T00:44:14.178Z,49.99
2018-07-27T00:45:14.166Z,49.90
2018-07-27T00:46:14.171Z,49.51
2018-07-27T00:47:14.168Z,49.58
2018-07-27T00:48:14.174Z,50.29
2018-07-27T00:49:14.174Z,49.77
2018-07-27T00:50:14.168Z,49.90
2018-07-27T00:51:14.192Z,49.58
2018-07-27T00:52:14.199Z,49.68
2018-07-27T00:53:14.177Z,49.87
2018-07-27T00:54:14.180Z,49.87
2018-07-27T00:55:14.179Z,49.87
2018-07-27T00:56:14.179Z,49.58
2018-07-27T00:57:14.179Z,49.99
2018-07-27T00:58:14.177Z,50.26
2018-07-27T00:59:14.176Z,50.07
2018-07-27T01:00:14.182Z,50.35
2018-07-27T01:01:14.182Z,50.35
2018-07-27T01:02:14.186Z,50.55
2018-07-27T01:03:14.183Z,50.55
2018-07-27T01:04:14.187Z,50.55
2018-07-27T01:05:14.183Z,50.74
2018-07-27T01:06:14.198Z,50.35
2018-07-27T01:07:14.188Z,50.84
2018-07-27T01:08:14.189Z,50.94
2018-07-27T01:09:14.189Z,51.04
2018-07-27T01:10:14.187Z,51.32
2018-07-27T01:11:14.190Z,51.04
2018-07-27T01:12:14.186Z,51.32
2018-07-27T01:13:14.190Z,51.23
2018-07-27T01:14:14.190Z,51.04
2018-07-27T01:15:14.189Z,51.23
2018-07-27T01:16:14.883Z,51.42
2018-07-27T01:17:14.192Z,51.32
2018-07-27T01:18:14.192Z,51.42
2018-07-27T01:19:14.204Z,51.42
2018-07-27T01:20:14.215Z,51.04
2018-07-27T01:21:14.190Z,51.42
2018-07-27T01:22:14.194Z,51.68
2018-07-27T01:23:14.192Z,52.00
2018-07-27T01:24:14.192Z,51.50
2018-07-27T01:25:14.195Z,51.62
2018-07-27T01:26:14.209Z,51.78
2018-07-27T01:27:14.202Z,51.68
2018-07-27T01:28:14.196Z,52.49
2018-07-27T01:29:14.220Z,52.29
2018-07-27T01:30:14.202Z,52.17
2018-07-27T01:31:14.197Z,52.17
2018-07-27T01:32:14.200Z,52.36
2018-07-27T01:33:14.207Z,52.46
2018-07-27T01:34:14.204Z,52.27
2018-07-27T01:35:14.202Z,52.56
2018-07-27T01:36:14.200Z,52.36
2018-07-27T01:37:14.199Z,52.66
2018-07-27T01:38:14.200Z,52.75
2018-07-27T01:39:14.207Z,52.75
2018-07-27T01:40:14.202Z,52.66
2018-07-27T01:41:14.205Z,52.75
2018-07-27T01:42:14.201Z,52.82
2018-07-27T01:43:14.201Z,52.63
2018-07-27T01:44:14.201Z,52.95
2018-07-27T01:45:14.202Z,52.73
2018-07-27T01:46:14.204Z,53.41
2018-07-27T01:47:14.206Z,53.21
2018-07-27T01:48:14.210Z,53.21
2018-07-27T01:49:14.205Z,53.14
2018-07-27T01:50:14.206Z,53.02
2018-07-27T01:51:14.225Z,53.41
2018-07-27T01:52:14.207Z,53.41
2018-07-27T01:53:14.208Z,53.21
2018-07-27T01:54:14.210Z,53.41
2018-07-27T01:55:14.210Z,52.92
2018-07-27T01:56:14.207Z,52.92
2018-07-27T01:57:14.206Z,53.31
2018-07-27T01:58:14.208Z,53.31
2018-07-27T01:59:14.208Z,52.92
2018-07-27T02:00:14.212Z,53.89
2018-07-27T02:01:14.211Z,53.50
2018-07-27T02:02:14.215Z,53.50
2018-07-27T02:03:14.214Z,53.89
2018-07-27T02:04:14.208Z,53.69
2018-07-27T02:05:14.210Z,54.27
2018-07-27T02:06:14.231Z,54.08
2018-07-27T02:07:14.215Z,54.37
2018-07-27T02:08:14.213Z,54.73
2018-07-27T02:09:14.212Z,54.85
2018-07-27T02:10:14.229Z,54.73
2018-07-27T02:11:14.212Z,54.66
2018-07-27T02:12:14.211Z,54.27
2018-07-27T02:13:14.218Z,54.35
2018-07-27T02:14:14.218Z,54.66
2018-07-27T02:15:14.218Z,54.53
2018-07-27T02:16:14.216Z,54.53
2018-07-27T02:17:14.219Z,54.63
2018-07-27T02:18:14.217Z,54.63
2018-07-27T02:19:14.218Z,54.53
2018-07-27T02:20:14.217Z,54.15
2018-07-27T02:21:14.216Z,54.35
2018-07-27T02:22:14.225Z,54.53
2018-07-27T02:23:14.227Z,54.83
2018-07-27T02:24:14.218Z,54.44
2018-07-27T02:25:14.219Z,54.93
2018-07-27T02:26:14.217Z,54.83
2018-07-27T02:27:14.214Z,54.83
2018-07-27T02:28:14.217Z,54.44
2018-07-27T02:29:14.230Z,55.21
2018-07-27T02:30:14.216Z,55.02
2018-07-27T02:31:14.229Z,55.31
2018-07-27T02:32:14.217Z,55.11
2018-07-27T02:33:14.222Z,55.51
2018-07-27T02:34:14.221Z,55.11
2018-07-27T02:35:14.218Z,55.11
2018-07-27T02:36:14.223Z,55.21
2018-07-27T02:37:14.223Z,54.93
2018-07-27T02:38:14.223Z,55.02
2018-07-27T02:39:14.229Z,54.63
2018-07-27T02:40:14.218Z,55.02
2018-07-27T02:41:14.222Z,55.51
2018-07-27T02:42:14.220Z,55.60
2018-07-27T02:43:14.229Z,54.51
2018-07-27T02:44:14.222Z,55.11
2018-07-27T02:45:14.226Z,55.21
2018-07-27T02:46:14.224Z,55.77
2018-07-27T02:47:14.218Z,56.15
2018-07-27T02:48:14.222Z,55.19
2018-07-27T02:49:14.224Z,55.57
2018-07-27T02:50:14.223Z,55.57
2018-07-27T02:51:14.261Z,55.38
2018-07-27T02:52:14.226Z,55.09
2018-07-27T02:53:14.224Z,55.77
2018-07-27T02:54:14.235Z,55.96
2018-07-27T02:55:14.222Z,56.25
2018-07-27T02:56:14.223Z,56.35
2018-07-27T02:57:14.225Z,56.05
2018-07-27T02:58:14.229Z,56.83
2018-07-27T02:59:14.224Z,56.45
2018-07-27T03:00:14.224Z,56.63
2018-07-27T03:01:14.222Z,56.45
2018-07-27T03:02:14.225Z,57.12
2018-07-27T03:03:14.230Z,56.63
2018-07-27T03:04:14.222Z,56.41
2018-07-27T03:05:14.223Z,56.71
2018-07-27T03:06:14.246Z,56.93
2018-07-27T03:07:14.233Z,56.99
2018-07-27T03:08:14.222Z,57.09
2018-07-27T03:09:14.229Z,57.38
2018-07-27T03:10:14.221Z,57.67
2018-07-27T03:11:14.228Z,57.09
2018-07-27T03:12:14.223Z,57.77
2018-07-27T03:13:14.224Z,57.51
2018-07-27T03:14:14.225Z,57.57
2018-07-27T03:15:14.244Z,57.77
2018-07-27T03:16:14.229Z,57.57
2018-07-27T03:17:14.226Z,57.57
2018-07-27T03:18:14.223Z,57.89
2018-07-27T03:19:14.231Z,57.21
2018-07-27T03:20:14.228Z,57.67
2018-07-27T03:21:14.227Z,57.96
2018-07-27T03:22:14.223Z,57.60
2018-07-27T03:23:14.225Z,57.19
2018-07-27T03:24:14.223Z,57.51
2018-07-27T03:25:14.226Z,57.38
2018-07-27T03:26:14.229Z,57.38
2018-07-27T03:27:14.226Z,57.70
2018-07-27T03:28:14.225Z,57.29
2018-07-27T03:29:14.226Z,58.06
2018-07-27T03:30:14.228Z,57.67
2018-07-27T03:31:14.232Z,58.35
2018-07-27T03:32:14.223Z,57.48
2018-07-27T03:33:14.236Z,57.57
2018-07-27T03:34:14.225Z,57.48
2018-07-27T03:35:14.227Z,58.06
2018-07-27T03:36:14.226Z,57.38
2018-07-27T03:37:14.225Z,57.19
2018-07-27T03:38:14.279Z,57.87
2018-07-27T03:39:14.228Z,58.25
2018-07-27T03:40:14.241Z,58.54
2018-07-27T03:41:14.226Z,58.25
2018-07-27T03:42:14.260Z,58.45
2018-07-27T03:43:14.231Z,58.25
2018-07-27T03:44:14.226Z,58.93
2018-07-27T03:45:14.225Z,58.25
2018-07-27T03:46:14.227Z,58.73
2018-07-27T03:47:14.223Z,58.93
2018-07-27T03:48:14.220Z,59.31
2018-07-27T03:49:14.232Z,58.93
2018-07-27T03:50:14.226Z,59.31
2018-07-27T03:51:14.224Z,59.02
2018-07-27T03:52:14.221Z,59.58
2018-07-27T03:53:14.221Z,60.09
2018-07-27T03:54:14.234Z,59.28
2018-07-27T03:55:14.233Z,59.80
2018-07-27T03:56:14.224Z,59.89
2018-07-27T03:57:14.244Z,59.51
2018-07-27T03:58:14.228Z,59.86
2018-07-27T03:59:14.231Z,59.77
2018-07-27T04:00:14.219Z,59.96
2018-07-27T04:01:14.235Z,60.06
2018-07-27T04:02:14.264Z,60.47
2018-07-27T04:03:14.222Z,60.35
2018-07-27T04:04:14.219Z,60.28
2018-07-27T04:05:14.221Z,60.18
2018-07-27T04:06:14.221Z,60.18
2018-07-27T04:07:14.272Z,59.99
2018-07-27T04:08:14.224Z,60.16
2018-07-27T04:09:14.222Z,60.16
2018-07-27T04:10:14.222Z,60.09
2018-07-27T04:11:14.221Z,60.16
2018-07-27T04:12:14.225Z,60.25
2018-07-27T04:13:14.218Z,60.09
2018-07-27T04:14:14.223Z,59.99
2018-07-27T04:15:14.219Z,60.47
2018-07-27T04:16:14.224Z,59.86
2018-07-27T04:17:14.222Z,60.18
2018-07-27T04:18:14.217Z,60.47
2018-07-27T04:19:14.231Z,60.18
2018-07-27T04:20:14.216Z,60.44
2018-07-27T04:21:14.217Z,59.77
2018-07-27T04:22:14.217Z,60.18
2018-07-27T04:23:14.215Z,59.86
2018-07-27T04:24:14.219Z,59.99
2018-07-27T04:25:14.219Z,60.18
2018-07-27T04:26:14.246Z,59.96
2018-07-27T04:27:14.217Z,60.28
2018-07-27T04:28:14.217Z,60.28
2018-07-27T04:29:14.216Z,59.89
2018-07-27T04:30:14.210Z,60.09
2018-07-27T04:31:14.216Z,59.99
2018-07-27T04:32:14.214Z,60.38
2018-07-27T04:33:14.211Z,60.28
2018-07-27T04:34:14.230Z,60.47
2018-07-27T04:35:14.209Z,59.89
2018-07-27T04:36:14.208Z,60.28
2018-07-27T04:37:14.208Z,60.28
2018-07-27T04:38:14.211Z,60.76
2018-07-27T04:39:14.213Z,60.09
2018-07-27T04:40:14.213Z,60.09
2018-07-27T04:41:14.211Z,59.89
2018-07-27T04:42:14.207Z,60.09
2018-07-27T04:43:14.209Z,59.70
2018-07-27T04:44:14.207Z,59.51
2018-07-27T04:45:14.211Z,59.70
2018-07-27T04:46:14.204Z,59.99
2018-07-27T04:47:14.207Z,59.70
2018-07-27T04:48:14.205Z,59.80
2018-07-27T04:49:14.205Z,59.02
2018-07-27T04:50:14.208Z,59.02
2018-07-27T04:51:14.206Z,58.86
2018-07-27T04:52:14.214Z,59.53
2018-07-27T04:53:14.206Z,59.83
2018-07-27T04:54:14.206Z,59.34
2018-07-27T04:55:14.205Z,58.86
2018-07-27T04:56:14.247Z,58.47
2018-07-27T04:57:14.205Z,58.37
2018-07-27T04:58:14.204Z,58.12
2018-07-27T04:59:14.212Z,58.31
2018-07-27T05:00:14.229Z,57.73
2018-07-27T05:01:14.266Z,57.54
2018-07-27T05:02:14.205Z,57.15
2018-07-27T05:03:14.200Z,56.88
2018-07-27T05:04:14.208Z,56.88
2018-07-27T05:05:14.201Z,56.88
2018-07-27T05:06:14.203Z,56.02
2018-07-27T05:07:14.207Z,56.02
2018-07-27T05:08:14.203Z,56.11
2018-07-27T05:09:14.202Z,56.30
2018-07-27T05:10:14.204Z,55.94
2018-07-27T05:11:14.202Z,56.92
2018-07-27T05:12:14.203Z,56.04
2018-07-27T05:13:14.209Z,55.56
2018-07-27T05:14:14.208Z,55.17
2018-07-27T05:15:14.223Z,55.07
2018-07-27T05:16:14.205Z,55.46
2018-07-27T05:17:14.204Z,55.17
2018-07-27T05:18:14.235Z,55.30
2018-07-27T05:19:14.207Z,55.10
2018-07-27T05:20:14.207Z,54.81
2018-07-27T05:21:14.205Z,54.81
2018-07-27T05:22:14.221Z,53.58
2018-07-27T05:23:14.212Z,53.97
2018-07-27T05:24:14.236Z,53.87
2018-07-27T05:25:14.212Z,53.49
2018-07-27T05:26:14.210Z,53.39
2018-07-27T05:27:14.228Z,53.39
2018-07-27T05:28:14.212Z,53.22
2018-07-27T05:29:14.224Z,53.31
2018-07-27T05:30:14.230Z,53.41
2018-07-27T05:31:14.240Z,52.73
2018-07-27T05:32:14.217Z,52.25
2018-07-27T05:33:14.222Z,52.28
2018-07-27T05:34:14.255Z,51.89
2018-07-27T05:35:14.224Z,52.47
2018-07-27T05:36:14.257Z,52.18
2018-07-27T05:37:14.228Z,51.50
2018-07-27T05:38:14.236Z,51.31
2018-07-27T05:39:14.232Z,51.50
2018-07-27T05:40:14.234Z,51.59
2018-07-27T05:41:14.259Z,51.14
2018-07-27T05:42:14.245Z,51.23
2018-07-27T05:43:14.246Z,51.26
2018-07-27T05:44:14.240Z,50.26
2018-07-27T05:45:14.248Z,50.77
2018-07-27T05:46:14.248Z,49.99
2018-07-27T05:47:14.271Z,50.19
2018-07-27T05:48:14.251Z,49.99
2018-07-27T05:49:14.264Z,50.48
2018-07-27T05:50:14.257Z,49.51
2018-07-27T05:51:14.262Z,49.61
2018-07-27T05:52:14.270Z,49.34
2018-07-27T05:53:14.269Z,49.34
2018-07-27T05:54:14.279Z,49.34
2018-07-27T05:55:14.295Z,49.44
2018-07-27T05:56:14.280Z,49.54
2018-07-27T05:57:14.309Z,49.34
2018-07-27T05:58:14.291Z,49.37
2018-07-27T05:59:14.316Z,48.78
2018-07-27T06:00:14.302Z,48.49
2018-07-27T06:01:14.350Z,48.13
2018-07-27T06:02:15.066Z,48.13
2018-07-27T06:03:14.300Z,48.13
2018-07-27T06:04:14.306Z,48.25
2018-07-27T06:05:14.307Z,47.66
2018-07-27T06:06:14.319Z,47.17
2018-07-27T06:07:14.320Z,47.76
2018-07-27T06:08:14.318Z,46.69
2018-07-27T06:09:14.325Z,46.88
2018-07-27T06:10:14.326Z,45.62
2018-07-27T06:11:14.347Z,45.42
2018-07-27T06:12:14.338Z,45.32
2018-07-27T06:13:14.342Z,45.52
2018-07-27T06:14:14.345Z,45.84
2018-07-27T06:15:14.354Z,45.74
2018-07-27T06:16:14.360Z,46.23
2018-07-27T06:17:14.358Z,45.94
2018-07-27T06:18:14.461Z,45.47
2018-07-27T06:19:14.367Z,44.69
2018-07-27T06:20:14.373Z,43.81
2018-07-27T06:21:14.392Z,43.52
2018-07-27T06:22:14.381Z,43.91
2018-07-27T06:23:14.395Z,43.64
2018-07-27T06:24:14.472Z,43.23
2018-07-27T06:25:14.405Z,43.52
2018-07-27T06:26:14.401Z,43.91
2018-07-27T06:27:14.424Z,43.04
2018-07-27T06:28:14.448Z,43.05
2018-07-27T06:29:14.484Z,43.13
2018-07-27T06:30:14.421Z,43.13
2018-07-27T06:31:14.423Z,43.74
2018-07-27T06:32:14.434Z,43.15
2018-07-27T06:33:14.438Z,43.27
2018-07-27T06:34:14.439Z,42.59
2018-07-27T06:35:14.450Z,43.08
2018-07-27T06:36:14.458Z,42.59
2018-07-27T06:37:14.463Z,43.10
2018-07-27T06:38:14.470Z,42.14
2018-07-27T06:39:14.526Z,41.36
2018-07-27T06:40:14.489Z,40.78
2018-07-27T06:41:14.471Z,41.07
2018-07-27T06:42:14.476Z,41.19
2018-07-27T06:43:14.486Z,40.41
2018-07-27T06:44:14.484Z,40.00
2018-07-27T06:45:14.520Z,40.19
2018-07-27T06:46:14.497Z,41.27
2018-07-27T06:47:14.502Z,40.80
2018-07-27T06:48:14.516Z,40.89
2018-07-27T06:49:14.536Z,41.11
2018-07-27T06:50:14.518Z,39.16
2018-07-27T06:51:14.523Z,40.43
2018-07-27T06:52:14.529Z,39.36
2018-07-27T06:53:14.537Z,39.16
2018-07-27T06:54:14.568Z,40.14
2018-07-27T06:55:14.553Z,39.37
2018-07-27T06:56:14.556Z,38.40
2018-07-27T06:57:14.562Z,38.40
2018-07-27T06:58:14.569Z,38.48
2018-07-27T06:59:14.571Z,39.47
2018-07-27T07:00:14.582Z,39.18
2018-07-27T07:01:14.585Z,40.25
2018-07-27T07:02:14.600Z,39.28
2018-07-27T07:03:14.620Z,38.01
2018-07-27T07:04:14.604Z,38.57
2018-07-27T07:05:14.609Z,39.67
2018-07-27T07:06:14.624Z,38.79
2018-07-27T07:07:14.624Z,39.08
2018-07-27T07:08:14.635Z,38.38
2018-07-27T07:09:14.637Z,38.38
2018-07-27T07:10:14.650Z,39.26
2018-07-27T07:11:14.652Z,39.36
2018-07-27T07:12:14.667Z,39.26
2018-07-27T07:13:14.668Z,38.57
2018-07-27T07:14:14.674Z,38.67
2018-07-27T07:15:14.677Z,39.14
2018-07-27T07:16:14.692Z,38.75
2018-07-27T07:17:14.692Z,39.04
2018-07-27T07:18:14.702Z,39.72
2018-07-27T07:19:14.706Z,39.84
2018-07-27T07:20:14.710Z,40.64
2018-07-27T07:21:14.719Z,39.20
2018-07-27T07:22:14.724Z,38.43
2018-07-27T07:23:14.733Z,37.75
2018-07-27T07:24:14.737Z,37.45
2018-07-27T07:25:14.815Z,36.96
2018-07-27T07:26:14.858Z,36.94
2018-07-27T07:27:14.764Z,38.24
2018-07-27T07:28:14.799Z,38.06
2018-07-27T07:29:14.779Z,37.69
2018-07-27T07:30:14.795Z,36.33
2018-07-27T07:31:14.792Z,35.35
2018-07-27T07:32:14.797Z,35.53
2018-07-27T07:33:14.831Z,35.81
2018-07-27T07:34:14.815Z,36.79
2018-07-27T07:35:14.823Z,36.88
2018-07-27T07:36:14.824Z,36.20
2018-07-27T07:37:14.849Z,36.00
2018-07-27T07:38:14.843Z,36.10
2018-07-27T07:39:14.868Z,36.18
2018-07-27T07:40:14.866Z,36.96
2018-07-27T07:41:14.866Z,36.47
2018-07-27T07:42:14.871Z,37.06
2018-07-27T07:43:14.884Z,36.77
2018-07-27T07:44:14.890Z,36.57
2018-07-27T07:45:14.896Z,36.77
2018-07-27T07:46:14.906Z,37.27
2018-07-27T07:47:14.912Z,36.79
2018-07-27T07:48:14.918Z,36.90
2018-07-27T07:49:14.956Z,38.39
2018-07-27T07:50:14.936Z,36.43
2018-07-27T07:51:14.947Z,35.75
2018-07-27T07:52:14.956Z,35.86
2018-07-27T07:53:14.959Z,36.57
2018-07-27T07:54:14.971Z,34.81
2018-07-27T07:55:14.984Z,34.83
2018-07-27T07:56:14.987Z,33.38
2018-07-27T07:57:14.995Z,32.89
2018-07-27T07:58:15.060Z,34.18
2018-07-27T07:59:15.023Z,32.82
2018-07-27T08:00:15.026Z,32.53
2018-07-27T08:01:15.032Z,35.10
2018-07-27T08:02:15.039Z,32.07
2018-07-27T08:03:15.047Z,30.88
2018-07-27T08:04:15.669Z,30.10
2018-07-27T08:05:15.079Z,30.15
2018-07-27T08:06:15.086Z,31.41
2018-07-27T08:07:15.108Z,31.61
2018-07-27T08:08:15.101Z,31.90
2018-07-27T08:09:15.107Z,31.92
2018-07-27T08:10:15.117Z,32.53
2018-07-27T08:11:15.157Z,31.87
2018-07-27T08:12:15.144Z,30.80
2018-07-27T08:13:15.165Z,29.63
2018-07-27T08:14:15.157Z,29.03
2018-07-27T08:15:15.167Z,29.49
2018-07-27T08:16:15.174Z,30.84
2018-07-27T08:17:15.186Z,31.22
2018-07-27T08:18:15.200Z,32.59
2018-07-27T08:19:15.207Z,32.41
2018-07-27T08:20:15.215Z,31.85
2018-07-27T08:21:15.243Z,30.80
2018-07-27T08:22:15.243Z,29.34
2018-07-27T08:23:15.279Z,29.66
2018-07-27T08:24:15.283Z,28.68
2018-07-27T08:25:15.268Z,27.78
2018-07-27T08:26:15.305Z,28.34
2018-07-27T08:27:15.287Z,29.62
2018-07-27T08:28:15.299Z,28.42
2018-07-27T08:29:15.336Z,28.91
2018-07-27T08:30:15.324Z,29.99
2018-07-27T08:31:15.333Z,29.68
2018-07-27T08:32:15.343Z,29.77
2018-07-27T08:33:15.350Z,29.57
2018-07-27T08:34:15.387Z,30.93
2018-07-27T08:35:15.401Z,30.91
2018-07-27T08:36:15.421Z,30.91
2018-07-27T08:37:15.419Z,31.10
2018-07-27T08:38:15.409Z,30.81
2018-07-27T08:39:15.417Z,30.42
2018-07-27T08:40:15.426Z,30.91
2018-07-27T08:41:15.464Z,31.12
2018-07-27T08:42:15.456Z,29.17
2018-07-27T08:43:15.464Z,29.16
2018-07-27T08:44:15.486Z,30.04
2018-07-27T08:45:15.490Z,31.12
2018-07-27T08:46:15.492Z,30.27
2018-07-27T08:47:15.514Z,29.20
2018-07-27T08:48:15.514Z,27.92
2018-07-27T08:49:15.531Z,28.83
2018-07-27T08:50:15.561Z,28.45
2018-07-27T08:51:15.545Z,26.88
2018-07-27T08:52:15.555Z,26.09
2018-07-27T08:53:15.570Z,27.25
2018-07-27T08:54:15.586Z,27.94
2018-07-27T08:55:15.588Z,28.02
2018-07-27T08:56:15.650Z,28.02
2018-07-27T08:57:15.613Z,28.12
2018-07-27T08:58:15.621Z,27.72
2018-07-27T08:59:15.634Z,27.62
2018-07-27T09:00:15.647Z,27.92
2018-07-27T09:01:15.653Z,28.03
2018-07-27T09:02:15.662Z,27.53
2018-07-27T09:03:15.673Z,27.61
2018-07-27T09:04:15.713Z,28.51
2018-07-27T09:05:15.711Z,28.33
2018-07-27T09:06:15.707Z,27.66
2018-07-27T09:07:15.725Z,27.66
2018-07-27T09:08:15.727Z,27.26
2018-07-27T09:09:15.742Z,25.98
2018-07-27T09:10:15.811Z,27.44
2018-07-27T09:11:15.769Z,27.96
2018-07-27T09:12:15.778Z,27.30
2018-07-27T09:13:15.789Z,25.35
2018-07-27T09:14:15.796Z,25.05
2018-07-27T09:15:15.817Z,25.83
2018-07-27T09:16:15.819Z,26.14
2018-07-27T09:17:15.877Z,25.92
2018-07-27T09:18:15.854Z,26.01
2018-07-27T09:19:15.864Z,26.40
2018-07-27T09:20:15.870Z,26.70
2018-07-27T09:21:15.876Z,25.83
2018-07-27T09:22:15.888Z,24.96
2018-07-27T09:23:15.901Z,25.44
2018-07-27T09:24:16.011Z,25.72
2018-07-27T09:25:16.308Z,26.32
2018-07-27T09:26:15.938Z,25.24
2018-07-27T09:27:15.947Z,25.02
2018-07-27T09:28:15.959Z,26.48
2018-07-27T09:29:15.971Z,26.67
2018-07-27T09:30:16.013Z,27.44
2018-07-27T09:31:16.008Z,27.05
2018-07-27T09:32:16.006Z,27.54
2018-07-27T09:33:16.024Z,27.74
2018-07-27T09:34:16.069Z,27.84
2018-07-27T09:35:16.052Z,27.06
2018-07-27T09:36:16.068Z,27.85
2018-07-27T09:37:16.064Z,27.40
2018-07-27T09:38:16.094Z,26.01
2018-07-27T09:39:16.095Z,26.58
2018-07-27T09:40:16.110Z,26.47
2018-07-27T09:41:16.114Z,27.47
2018-07-27T09:42:16.145Z,26.37
2018-07-27T09:43:16.141Z,26.77
2018-07-27T09:44:16.153Z,27.33
2018-07-27T09:45:16.164Z,28.02
2018-07-27T09:46:16.177Z,27.72
2018-07-27T09:47:16.187Z,27.81
2018-07-27T09:48:16.196Z,28.00
2018-07-27T09:49:16.208Z,27.81
2018-07-27T09:50:16.240Z,28.49
2018-07-27T09:51:16.233Z,28.51
2018-07-27T09:52:16.242Z,27.82
2018-07-27T09:53:16.254Z,27.75
2018-07-27T09:54:16.292Z,27.17
2018-07-27T09:55:16.290Z,26.68
2018-07-27T09:56:16.291Z,26.19
2018-07-27T09:57:16.304Z,26.67
2018-07-27T09:58:16.314Z,27.75
2018-07-27T09:59:16.324Z,27.86
2018-07-27T10:00:16.342Z,26.29
2018-07-27T10:01:16.364Z,26.29
2018-07-27T10:02:16.359Z,26.39
2018-07-27T10:03:16.369Z,27.25
2018-07-27T10:04:16.385Z,27.43
2018-07-27T10:05:16.395Z,28.20
2018-07-27T10:06:16.422Z,27.92
2018-07-27T10:07:16.422Z,27.71
2018-07-27T10:08:16.455Z,28.40
2018-07-27T10:09:16.441Z,28.02
2018-07-27T10:10:16.454Z,27.86
2018-07-27T10:11:16.469Z,26.31
2018-07-27T10:12:16.485Z,26.14
2018-07-27T10:13:16.485Z,24.88
2018-07-27T10:14:16.500Z,24.20
2018-07-27T10:15:16.519Z,24.68
2018-07-27T10:16:16.517Z,25.08
2018-07-27T10:17:16.564Z,24.98
2018-07-27T10:18:16.551Z,23.51
2018-07-27T10:19:16.560Z,23.41
2018-07-27T10:20:16.573Z,23.33
2018-07-27T10:21:16.582Z,23.52
2018-07-27T10:22:16.601Z,23.71
2018-07-27T10:23:16.613Z,23.61
2018-07-27T10:24:16.619Z,24.30
2018-07-27T10:25:16.628Z,23.32
2018-07-27T10:26:16.639Z,23.51
2018-07-27T10:27:16.665Z,24.52
2018-07-27T10:28:16.663Z,23.66
2018-07-27T10:29:16.680Z,22.47
2018-07-27T10:30:16.696Z,22.56
2018-07-27T10:31:16.771Z,23.16
2018-07-27T10:32:16.721Z,23.26
2018-07-27T10:33:16.741Z,22.37
2018-07-27T10:34:16.768Z,22.11
2018-07-27T10:35:16.759Z,22.00
2018-07-27T10:36:16.775Z,22.11
2018-07-27T10:37:16.805Z,20.33
2018-07-27T10:38:16.807Z,21.59
2018-07-27T10:39:16.811Z,22.56
2018-07-27T10:40:16.852Z,22.27
2018-07-27T10:41:16.836Z,22.45
2018-07-27T10:42:16.861Z,22.74
2018-07-27T10:43:16.889Z,23.54
2018-07-27T10:44:16.881Z,23.33
2018-07-27T10:45:16.893Z,23.62
2018-07-27T10:46:16.911Z,24.11
2018-07-27T10:47:16.940Z,23.32
2018-07-27T10:48:16.936Z,24.49
2018-07-27T10:49:16.957Z,24.58
2018-07-27T10:50:17.032Z,24.57
2018-07-27T10:51:16.979Z,24.57
2018-07-27T10:52:16.997Z,24.58
2018-07-27T10:53:17.003Z,24.09
2018-07-27T10:54:17.021Z,23.41
2018-07-27T10:55:17.052Z,23.30
2018-07-27T10:56:17.093Z,24.07
2018-07-27T10:57:17.063Z,24.66
2018-07-27T10:58:17.083Z,24.67
2018-07-27T10:59:17.090Z,24.48
2018-07-27T11:00:17.115Z,23.58
2018-07-27T11:01:17.143Z,23.48
2018-07-27T11:02:17.162Z,23.98
2018-07-27T11:03:17.146Z,24.08
2018-07-27T11:04:17.191Z,23.49
2018-07-27T11:05:17.177Z,23.96
2018-07-27T11:06:17.187Z,24.45
2018-07-27T11:07:17.219Z,24.45
2018-07-27T11:08:17.218Z,24.06
2018-07-27T11:09:17.247Z,24.07
2018-07-27T11:10:17.248Z,23.68
2018-07-27T11:11:17.262Z,23.28
2018-07-27T11:12:17.272Z,23.66
2018-07-27T11:13:17.290Z,24.23
2018-07-27T11:14:17.296Z,24.71
2018-07-27T11:15:17.364Z,24.71
2018-07-27T11:16:17.402Z,25.01
2018-07-27T11:17:17.394Z,25.21
2018-07-27T11:18:17.352Z,25.60
2018-07-27T11:19:17.369Z,25.70
2018-07-27T11:20:17.374Z,25.89
2018-07-27T11:21:17.387Z,25.12
2018-07-27T11:22:17.399Z,25.13
2018-07-27T11:23:17.423Z,24.85
2018-07-27T11:24:17.440Z,24.65
2018-07-27T11:25:17.452Z,24.75
2018-07-27T11:26:17.449Z,25.73
2018-07-27T11:27:17.486Z,25.86
2018-07-27T11:28:17.480Z,24.21
2018-07-27T11:29:17.496Z,23.55
2018-07-27T11:30:17.503Z,22.77
2018-07-27T11:31:17.522Z,21.58
2018-07-27T11:32:17.527Z,20.59
2018-07-27T11:33:17.557Z,21.75
2018-07-27T11:34:17.562Z,21.45
2018-07-27T11:35:17.581Z,22.60
2018-07-27T11:36:17.584Z,23.21
2018-07-27T11:37:17.623Z,22.81
2018-07-27T11:38:17.609Z,23.11
2018-07-27T11:39:17.621Z,22.41
2018-07-27T11:40:17.636Z,23.30
2018-07-27T11:41:17.665Z,23.51
2018-07-27T11:42:17.671Z,22.72
2018-07-27T11:43:17.676Z,22.93
2018-07-27T11:44:17.687Z,22.56
2018-07-27T11:45:17.702Z,21.67
2018-07-27T11:46:17.714Z,21.27
2018-07-27T11:47:17.729Z,21.38
2018-07-27T11:48:17.778Z,21.18
2018-07-27T11:49:22.325Z,20.78
2018-07-27T11:50:17.769Z,21.23
2018-07-27T11:51:17.801Z,22.19
2018-07-27T11:52:17.819Z,23.55
2018-07-27T11:53:17.813Z,23.44
2018-07-27T11:54:17.832Z,23.43
2018-07-27T11:55:17.838Z,24.70
2018-07-27T11:56:17.863Z,24.51
2018-07-27T11:57:17.861Z,25.01
2018-07-27T11:58:17.898Z,24.21
2018-07-27T11:59:17.892Z,24.70
2018-07-27T12:00:17.944Z,24.99
2018-07-27T12:01:17.922Z,23.43
2018-07-27T12:02:17.968Z,23.63
2018-07-27T12:03:17.947Z,23.15
2018-07-27T12:04:17.974Z,23.94
2018-07-27T12:05:17.973Z,22.56
2018-07-27T12:06:18.000Z,21.68
2018-07-27T12:07:18.000Z,22.86
2018-07-27T12:08:18.013Z,22.27
2018-07-27T12:09:18.093Z,22.37
2018-07-27T12:10:18.034Z,22.56
2018-07-27T12:11:18.046Z,21.48
2018-07-27T12:12:18.056Z,21.79
2018-07-27T12:13:18.072Z,21.88
2018-07-27T12:14:18.282Z,21.19
2018-07-27T12:15:18.422Z,20.40
2018-07-27T12:16:18.109Z,20.97
2018-07-27T12:17:18.119Z,21.56
2018-07-27T12:18:18.131Z,22.15
2018-07-27T12:19:18.148Z,21.76
2018-07-27T12:20:18.158Z,21.67
2018-07-27T12:21:18.256Z,21.67
2018-07-27T12:22:18.214Z,21.57
2018-07-27T12:23:18.195Z,22.75
2018-07-27T12:24:18.207Z,22.37
2018-07-27T12:25:18.224Z,22.17
2018-07-27T12:26:18.229Z,21.78
2018-07-27T12:27:18.238Z,21.48
2018-07-27T12:28:18.255Z,22.47
2018-07-27T12:29:18.263Z,22.08
2018-07-27T12:30:18.279Z,21.39
2018-07-27T12:31:18.299Z,21.00
2018-07-27T12:32:18.320Z,21.30
2018-07-27T12:33:18.318Z,21.78
2018-07-27T12:34:18.357Z,22.27
2018-07-27T12:35:18.337Z,22.56
2018-07-27T12:36:18.359Z,23.65
2018-07-27T12:37:18.359Z,21.82
2018-07-27T12:38:18.388Z,21.06
2018-07-27T12:39:18.384Z,19.71
2018-07-27T12:40:18.400Z,19.62
2018-07-27T12:41:18.410Z,19.14
2018-07-27T12:42:18.437Z,18.94
2018-07-27T12:43:18.433Z,19.53
2018-07-27T12:44:18.444Z,19.60
2018-07-27T12:45:18.464Z,20.08
2018-07-27T12:46:18.505Z,20.65
2018-07-27T12:47:18.508Z,21.22
2018-07-27T12:48:18.498Z,21.80
2018-07-27T12:49:18.522Z,22.56
2018-07-27T12:50:18.563Z,22.66
2018-07-27T12:51:18.557Z,22.95
2018-07-27T12:52:18.548Z,23.24